sensor_id;sensor_type;location;lat;lon;timestamp;pressure;altitude;pressure_sealevel;temperature;humidity
26978;BME280;56314;48.088;11.642;2023-05-24T00:00:41;95544.94;;;14.30;81.62
26978;BME280;56314;48.088;11.642;2023-05-24T00:03:06;95556.34;;;14.30;81.47
26978;BME280;56314;48.088;11.642;2023-05-24T00:05:32;95552.69;;;14.31;80.69
26978;BME280;56314;48.088;11.642;2023-05-24T00:08:01;95544.22;;;14.28;79.58
26978;BME280;56314;48.088;11.642;2023-05-24T00:10:27;95537.44;;;14.35;78.98
26978;BME280;56314;48.088;11.642;2023-05-24T00:12:52;95534.09;;;14.43;78.35
26978;BME280;56314;48.088;11.642;2023-05-24T00:15:17;95532.00;;;14.37;76.93
26978;BME280;56314;48.088;11.642;2023-05-24T00:17:43;95539.38;;;14.33;77.17
26978;BME280;56314;48.088;11.642;2023-05-24T00:20:09;95530.22;;;14.37;76.60
26978;BME280;56314;48.088;11.642;2023-05-24T00:22:36;95530.31;;;14.26;77.17
26978;BME280;56314;48.088;11.642;2023-05-24T00:25:02;95534.09;;;14.33;76.87
26978;BME280;56314;48.088;11.642;2023-05-24T00:27:27;95532.69;;;14.29;77.35
26978;BME280;56314;48.088;11.642;2023-05-24T00:29:52;95531.69;;;14.20;77.37
26978;BME280;56314;48.088;11.642;2023-05-24T00:32:18;95536.31;;;14.18;78.09
26978;BME280;56314;48.088;11.642;2023-05-24T00:34:43;95530.44;;;14.14;78.16
26978;BME280;56314;48.088;11.642;2023-05-24T00:37:09;95535.59;;;14.06;77.31
26978;BME280;56314;48.088;11.642;2023-05-24T00:39:34;95528.22;;;14.10;77.66
26978;BME280;56314;48.088;11.642;2023-05-24T00:41:59;95530.16;;;14.08;77.74
26978;BME280;56314;48.088;11.642;2023-05-24T00:44:25;95529.75;;;14.03;78.05
26978;BME280;56314;48.088;11.642;2023-05-24T00:46:50;95533.09;;;14.05;77.69
26978;BME280;56314;48.088;11.642;2023-05-24T00:49:16;95534.47;;;14.09;78.24
26978;BME280;56314;48.088;11.642;2023-05-24T00:51:41;95525.16;;;14.14;77.05
26978;BME280;56314;48.088;11.642;2023-05-24T00:54:07;95527.53;;;14.18;78.12
26978;BME280;56314;48.088;11.642;2023-05-24T00:56:32;95539.47;;;14.12;77.82
26978;BME280;56314;48.088;11.642;2023-05-24T00:58:58;95528.09;;;14.11;78.40
26978;BME280;56314;48.088;11.642;2023-05-24T01:01:24;95525.03;;;14.16;78.16
26978;BME280;56314;48.088;11.642;2023-05-24T01:03:53;95536.56;;;14.05;78.77
26978;BME280;56314;48.088;11.642;2023-05-24T01:06:19;95528.22;;;14.00;79.18
26978;BME280;56314;48.088;11.642;2023-05-24T01:09:06;95527.25;;;14.01;78.59
26978;BME280;56314;48.088;11.642;2023-05-24T01:17:20;95516.97;;;13.98;79.19
26978;BME280;56314;48.088;11.642;2023-05-24T01:20:06;95512.66;;;13.97;78.77
26978;BME280;56314;48.088;11.642;2023-05-24T01:28:00;95510.69;;;13.89;79.09
26978;BME280;56314;48.088;11.642;2023-05-24T01:30:28;95516.66;;;13.91;78.88
26978;BME280;56314;48.088;11.642;2023-05-24T01:32:54;95518.47;;;13.91;79.36
26978;BME280;56314;48.088;11.642;2023-05-24T01:35:19;95521.41;;;13.88;79.54
26978;BME280;56314;48.088;11.642;2023-05-24T01:37:45;95524.00;;;13.78;79.91
26978;BME280;56314;48.088;11.642;2023-05-24T01:40:11;95525.66;;;13.79;79.81
26978;BME280;56314;48.088;11.642;2023-05-24T01:42:44;95521.09;;;13.81;79.41
26978;BME280;56314;48.088;11.642;2023-05-24T01:45:24;95529.44;;;13.86;79.82
26978;BME280;56314;48.088;11.642;2023-05-24T01:50:57;95524.44;;;13.93;79.63
26978;BME280;56314;48.088;11.642;2023-05-24T01:53:25;95527.22;;;13.91;79.93
26978;BME280;56314;48.088;11.642;2023-05-24T01:55:54;95533.31;;;13.92;79.78
26978;BME280;56314;48.088;11.642;2023-05-24T01:58:22;95526.53;;;13.89;79.36
26978;BME280;56314;48.088;11.642;2023-05-24T02:00:47;95526.50;;;13.79;79.63
26978;BME280;56314;48.088;11.642;2023-05-24T02:03:13;95526.63;;;13.78;80.44
26978;BME280;56314;48.088;11.642;2023-05-24T02:05:40;95526.38;;;13.81;80.15
26978;BME280;56314;48.088;11.642;2023-05-24T02:08:05;95525.13;;;13.75;80.27
26978;BME280;56314;48.088;11.642;2023-05-24T02:10:31;95521.06;;;13.71;80.58
26978;BME280;56314;48.088;11.642;2023-05-24T02:12:56;95521.06;;;13.71;81.05
26978;BME280;56314;48.088;11.642;2023-05-24T02:15:23;95519.69;;;13.77;81.17
26978;BME280;56314;48.088;11.642;2023-05-24T02:17:50;95514.25;;;13.78;80.55
26978;BME280;56314;48.088;11.642;2023-05-24T02:20:18;95513.44;;;13.78;80.15
26978;BME280;56314;48.088;11.642;2023-05-24T02:22:46;95520.66;;;13.76;80.31
26978;BME280;56314;48.088;11.642;2023-05-24T02:25:12;95522.28;;;13.67;80.53
26978;BME280;56314;48.088;11.642;2023-05-24T02:27:37;95524.63;;;13.60;80.60
26978;BME280;56314;48.088;11.642;2023-05-24T02:30:04;95524.78;;;13.59;80.85
26978;BME280;56314;48.088;11.642;2023-05-24T02:32:30;95527.56;;;13.57;80.51
26978;BME280;56314;48.088;11.642;2023-05-24T02:34:55;95520.47;;;13.58;81.44
26978;BME280;56314;48.088;11.642;2023-05-24T02:37:23;95526.31;;;13.61;80.83
26978;BME280;56314;48.088;11.642;2023-05-24T02:39:49;95522.00;;;13.60;80.72
26978;BME280;56314;48.088;11.642;2023-05-24T02:42:14;95514.06;;;13.50;80.75
26978;BME280;56314;48.088;11.642;2023-05-24T02:44:39;95523.66;;;13.51;80.98
26978;BME280;56314;48.088;11.642;2023-05-24T02:47:07;95518.69;;;13.58;80.93
26978;BME280;56314;48.088;11.642;2023-05-24T02:49:32;95512.69;;;13.56;80.33
26978;BME280;56314;48.088;11.642;2023-05-24T02:51:57;95509.75;;;13.49;80.52
26978;BME280;56314;48.088;11.642;2023-05-24T02:54:23;95508.38;;;13.55;80.73
26978;BME280;56314;48.088;11.642;2023-05-24T02:56:48;95513.22;;;13.50;80.66
26978;BME280;56314;48.088;11.642;2023-05-24T02:59:14;95515.59;;;13.53;81.15
26978;BME280;56314;48.088;11.642;2023-05-24T03:01:39;95507.13;;;13.49;81.61
26978;BME280;56314;48.088;11.642;2023-05-24T03:04:04;95505.59;;;13.47;81.23
26978;BME280;56314;48.088;11.642;2023-05-24T03:06:30;95506.56;;;13.46;80.50
26978;BME280;56314;48.088;11.642;2023-05-24T03:08:55;95503.38;;;13.52;81.14
26978;BME280;56314;48.088;11.642;2023-05-24T03:11:22;95505.00;;;13.43;81.13
26978;BME280;56314;48.088;11.642;2023-05-24T03:13:48;95504.59;;;13.48;80.78
26978;BME280;56314;48.088;11.642;2023-05-24T03:16:13;95505.59;;;13.47;81.37
26978;BME280;56314;48.088;11.642;2023-05-24T03:18:39;95501.69;;;13.51;80.77
26978;BME280;56314;48.088;11.642;2023-05-24T03:21:05;95505.19;;;13.51;81.18
26978;BME280;56314;48.088;11.642;2023-05-24T03:23:31;95508.25;;;13.57;81.22
26978;BME280;56314;48.088;11.642;2023-05-24T03:25:57;95516.84;;;13.59;81.39
26978;BME280;56314;48.088;11.642;2023-05-24T03:28:22;95515.75;;;13.51;80.85
26978;BME280;56314;48.088;11.642;2023-05-24T03:30:47;95510.00;;;13.46;81.24
26978;BME280;56314;48.088;11.642;2023-05-24T03:33:13;95505.31;;;13.50;80.16
26978;BME280;56314;48.088;11.642;2023-05-24T03:35:38;95505.44;;;13.48;81.24
26978;BME280;56314;48.088;11.642;2023-05-24T03:38:04;95514.31;;;13.47;80.99
26978;BME280;56314;48.088;11.642;2023-05-24T03:40:29;95514.47;;;13.46;81.27
26978;BME280;56314;48.088;11.642;2023-05-24T03:42:57;95523.97;;;13.37;81.50
26978;BME280;56314;48.088;11.642;2023-05-24T03:45:23;95521.94;;;13.41;81.30
26978;BME280;56314;48.088;11.642;2023-05-24T03:47:48;95520.97;;;13.42;81.21
26978;BME280;56314;48.088;11.642;2023-05-24T03:50:13;95520.50;;;13.36;80.57
26978;BME280;56314;48.088;11.642;2023-05-24T03:52:39;95532.16;;;13.34;80.47
26978;BME280;56314;48.088;11.642;2023-05-24T03:55:04;95538.13;;;13.36;81.06
26978;BME280;56314;48.088;11.642;2023-05-24T03:57:30;95540.47;;;13.29;80.94
26978;BME280;56314;48.088;11.642;2023-05-24T03:59:55;95534.63;;;13.35;81.04
26978;BME280;56314;48.088;11.642;2023-05-24T04:02:21;95531.44;;;13.32;81.39
26978;BME280;56314;48.088;11.642;2023-05-24T04:04:46;95530.72;;;13.30;81.46
26978;BME280;56314;48.088;11.642;2023-05-24T04:07:11;95542.13;;;13.30;80.91
26978;BME280;56314;48.088;11.642;2023-05-24T04:09:38;95542.84;;;13.32;80.94
26978;BME280;56314;48.088;11.642;2023-05-24T04:12:04;95539.91;;;13.35;79.57
26978;BME280;56314;48.088;11.642;2023-05-24T04:14:30;95543.41;;;13.36;80.01
26978;BME280;56314;48.088;11.642;2023-05-24T04:16:55;95533.81;;;13.35;79.97
26978;BME280;56314;48.088;11.642;2023-05-24T04:19:21;95540.41;;;13.41;80.05
26978;BME280;56314;48.088;11.642;2023-05-24T04:21:47;95539.91;;;13.35;79.74
26978;BME280;56314;48.088;11.642;2023-05-24T04:24:13;95525.38;;;13.41;79.86
26978;BME280;56314;48.088;11.642;2023-05-24T04:26:38;95537.75;;;13.41;80.43
26978;BME280;56314;48.088;11.642;2023-05-24T04:29:04;95536.66;;;13.43;79.66
26978;BME280;56314;48.088;11.642;2023-05-24T04:31:29;95539.19;;;13.45;79.12
26978;BME280;56314;48.088;11.642;2023-05-24T04:33:57;95544.13;;;13.38;78.13
26978;BME280;56314;48.088;11.642;2023-05-24T04:36:24;95552.75;;;13.40;78.59
26978;BME280;56314;48.088;11.642;2023-05-24T04:38:49;95546.94;;;13.46;78.90
26978;BME280;56314;48.088;11.642;2023-05-24T04:41:18;95534.50;;;13.58;78.92
26978;BME280;56314;48.088;11.642;2023-05-24T04:43:43;95533.25;;;13.52;78.21
26978;BME280;56314;48.088;11.642;2023-05-24T04:46:09;95543.25;;;13.59;78.43
26978;BME280;56314;48.088;11.642;2023-05-24T04:48:34;95545.00;;;13.48;77.60
26978;BME280;56314;48.088;11.642;2023-05-24T04:51:00;95545.97;;;13.47;78.01
26978;BME280;56314;48.088;11.642;2023-05-24T04:53:25;95549.13;;;13.41;77.71
26978;BME280;56314;48.088;11.642;2023-05-24T04:55:50;95545.00;;;13.48;78.47
26978;BME280;56314;48.088;11.642;2023-05-24T04:58:16;95546.13;;;13.46;77.82
26978;BME280;56314;48.088;11.642;2023-05-24T05:00:42;95547.66;;;13.48;78.27
26978;BME280;56314;48.088;11.642;2023-05-24T05:03:08;95547.66;;;13.48;78.37
26978;BME280;56314;48.088;11.642;2023-05-24T05:05:34;95552.38;;;13.45;78.76
26978;BME280;56314;48.088;11.642;2023-05-24T05:08:00;95548.88;;;13.44;78.20
26978;BME280;56314;48.088;11.642;2023-05-24T05:10:25;95551.41;;;13.46;77.24
26978;BME280;56314;48.088;11.642;2023-05-24T05:12:51;95548.94;;;13.54;77.12
26978;BME280;56314;48.088;11.642;2023-05-24T05:15:19;95557.75;;;13.43;77.43
26978;BME280;56314;48.088;11.642;2023-05-24T05:17:44;95554.59;;;13.28;78.39
26978;BME280;56314;48.088;11.642;2023-05-24T05:20:09;95559.06;;;13.28;78.66
26978;BME280;56314;48.088;11.642;2023-05-24T05:22:35;95557.94;;;13.30;78.76
26978;BME280;56314;48.088;11.642;2023-05-24T05:25:00;95557.56;;;13.35;77.97
26978;BME280;56314;48.088;11.642;2023-05-24T05:27:26;95557.38;;;13.27;78.03
26978;BME280;56314;48.088;11.642;2023-05-24T05:29:51;95557.94;;;13.30;78.35
26978;BME280;56314;48.088;11.642;2023-05-24T05:32:17;95551.66;;;13.21;77.88
26978;BME280;56314;48.088;11.642;2023-05-24T05:34:42;95557.56;;;13.35;77.34
26978;BME280;56314;48.088;11.642;2023-05-24T05:37:07;95547.75;;;13.16;76.97
26978;BME280;56314;48.088;11.642;2023-05-24T05:39:33;95552.06;;;13.17;77.83
26978;BME280;56314;48.088;11.642;2023-05-24T05:41:58;95551.41;;;13.03;77.30
26978;BME280;56314;48.088;11.642;2023-05-24T05:44:23;95549.09;;;13.10;77.69
26978;BME280;56314;48.088;11.642;2023-05-24T05:46:49;95552.81;;;13.29;77.60
26978;BME280;56314;48.088;11.642;2023-05-24T05:49:15;95546.84;;;13.27;76.06
26978;BME280;56314;48.088;11.642;2023-05-24T05:51:43;95544.72;;;13.42;76.16
26978;BME280;56314;48.088;11.642;2023-05-24T05:54:08;95542.69;;;13.55;76.20
26978;BME280;56314;48.088;11.642;2023-05-24T05:56:39;95540.91;;;13.65;75.04
26978;BME280;56314;48.088;11.642;2023-05-24T05:59:13;95538.53;;;13.62;74.75
26978;BME280;56314;48.088;11.642;2023-05-24T06:01:38;95540.09;;;13.75;74.23
26978;BME280;56314;48.088;11.642;2023-05-24T06:04:04;95538.75;;;13.90;73.18
26978;BME280;56314;48.088;11.642;2023-05-24T06:06:29;95536.16;;;14.00;73.37
26978;BME280;56314;48.088;11.642;2023-05-24T06:08:55;95533.91;;;14.05;72.70
26978;BME280;56314;48.088;11.642;2023-05-24T06:11:20;95537.09;;;14.09;72.48
26978;BME280;56314;48.088;11.642;2023-05-24T06:13:46;95538.66;;;14.11;71.97
26978;BME280;56314;48.088;11.642;2023-05-24T06:16:11;95538.09;;;14.18;72.64
26978;BME280;56314;48.088;11.642;2023-05-24T06:18:38;95544.63;;;14.13;71.62
26978;BME280;56314;48.088;11.642;2023-05-24T06:21:04;95542.13;;;14.12;73.21
26978;BME280;56314;48.088;11.642;2023-05-24T06:23:30;95545.03;;;13.99;72.49
26978;BME280;56314;48.088;11.642;2023-05-24T06:25:56;95541.28;;;14.01;72.38
26978;BME280;56314;48.088;11.642;2023-05-24T06:28:21;95541.59;;;14.18;72.39
26978;BME280;56314;48.088;11.642;2023-05-24T06:30:47;95537.53;;;14.14;72.54
26978;BME280;56314;48.088;11.642;2023-05-24T06:33:12;95535.59;;;14.16;71.66
26978;BME280;56314;48.088;11.642;2023-05-24T06:35:38;95538.50;;;14.13;70.96
26978;BME280;56314;48.088;11.642;2023-05-24T06:38:03;95542.03;;;14.43;71.96
26978;BME280;56314;48.088;11.642;2023-05-24T06:40:28;95531.16;;;14.66;69.02
26978;BME280;56314;48.088;11.642;2023-05-24T06:42:54;95533.91;;;15.03;67.05
26978;BME280;56314;48.088;11.642;2023-05-24T06:45:19;95531.28;;;15.41;65.56
26978;BME280;56314;48.088;11.642;2023-05-24T06:47:45;95519.41;;;17.10;61.47
26978;BME280;56314;48.088;11.642;2023-05-24T06:50:10;95508.09;;;18.03;56.09
26978;BME280;56314;48.088;11.642;2023-05-24T06:52:35;95506.84;;;19.06;52.85
26978;BME280;56314;48.088;11.642;2023-05-24T06:55:01;95508.56;;;20.04;50.09
26978;BME280;56314;48.088;11.642;2023-05-24T06:57:26;95514.84;;;20.42;48.97
26978;BME280;56314;48.088;11.642;2023-05-24T06:59:51;95517.75;;;20.56;47.63
26978;BME280;56314;48.088;11.642;2023-05-24T07:02:17;95520.44;;;21.32;46.43
26978;BME280;56314;48.088;11.642;2023-05-24T07:04:42;95516.91;;;21.02;46.82
26978;BME280;56314;48.088;11.642;2023-05-24T07:07:08;95507.47;;;22.41;43.61
26978;BME280;56314;48.088;11.642;2023-05-24T07:09:34;95505.63;;;23.35;41.23
26978;BME280;56314;48.088;11.642;2023-05-24T07:11:59;95519.28;;;21.65;42.87
26978;BME280;56314;48.088;11.642;2023-05-24T07:14:26;95526.75;;;20.55;47.59
26978;BME280;56314;48.088;11.642;2023-05-24T07:16:52;95527.50;;;19.61;49.75
26978;BME280;56314;48.088;11.642;2023-05-24T07:19:19;95533.63;;;19.13;52.21
26978;BME280;56314;48.088;11.642;2023-05-24T07:21:46;95526.66;;;18.87;52.03
26978;BME280;56314;48.088;11.642;2023-05-24T07:24:11;95536.84;;;18.08;54.13
26978;BME280;56314;48.088;11.642;2023-05-24T07:26:37;95535.13;;;17.56;55.93
26978;BME280;56314;48.088;11.642;2023-05-24T07:29:02;95534.66;;;17.68;56.90
26978;BME280;56314;48.088;11.642;2023-05-24T07:31:27;95534.50;;;18.05;54.77
26978;BME280;56314;48.088;11.642;2023-05-24T07:33:55;95530.78;;;18.57;54.68
26978;BME280;56314;48.088;11.642;2023-05-24T07:36:20;95529.97;;;18.73;52.49
26978;BME280;56314;48.088;11.642;2023-05-24T07:38:46;95522.72;;;19.56;51.44
26978;BME280;56314;48.088;11.642;2023-05-24T07:41:12;95525.47;;;19.79;48.32
26978;BME280;56314;48.088;11.642;2023-05-24T07:43:38;95524.38;;;20.37;47.78
26978;BME280;56314;48.088;11.642;2023-05-24T07:46:03;95528.13;;;20.19;48.94
26978;BME280;56314;48.088;11.642;2023-05-24T07:48:29;95528.66;;;19.75;49.04
26978;BME280;56314;48.088;11.642;2023-05-24T07:50:54;95538.94;;;19.30;52.57
26978;BME280;56314;48.088;11.642;2023-05-24T07:53:20;95530.78;;;19.06;51.97
26978;BME280;56314;48.088;11.642;2023-05-24T07:55:47;95532.13;;;18.53;52.74
26978;BME280;56314;48.088;11.642;2023-05-24T07:58:12;95538.38;;;18.27;54.14
26978;BME280;56314;48.088;11.642;2023-05-24T08:00:37;95535.66;;;18.10;53.15
26978;BME280;56314;48.088;11.642;2023-05-24T08:03:05;95542.09;;;17.91;55.34
26978;BME280;56314;48.088;11.642;2023-05-24T08:05:30;95531.22;;;17.76;53.96
26978;BME280;56314;48.088;11.642;2023-05-24T08:07:56;95535.41;;;17.79;54.18
26978;BME280;56314;48.088;11.642;2023-05-24T08:10:21;95528.31;;;17.96;53.63
26978;BME280;56314;48.088;11.642;2023-05-24T08:12:47;95532.59;;;18.65;52.59
26978;BME280;56314;48.088;11.642;2023-05-24T08:15:15;95529.28;;;18.79;51.33
26978;BME280;56314;48.088;11.642;2023-05-24T08:17:41;95538.13;;;18.80;52.55
26978;BME280;56314;48.088;11.642;2023-05-24T08:20:07;95536.97;;;18.74;53.31
26978;BME280;56314;48.088;11.642;2023-05-24T08:22:34;95538.28;;;18.86;51.97
26978;BME280;56314;48.088;11.642;2023-05-24T08:24:59;95532.28;;;18.59;53.35
26978;BME280;56314;48.088;11.642;2023-05-24T08:27:25;95541.34;;;18.24;53.21
26978;BME280;56314;48.088;11.642;2023-05-24T08:29:53;95541.34;;;18.15;55.25
26978;BME280;56314;48.088;11.642;2023-05-24T08:32:18;95543.81;;;17.74;54.59
26978;BME280;56314;48.088;11.642;2023-05-24T08:34:43;95545.75;;;17.64;54.90
26978;BME280;56314;48.088;11.642;2023-05-24T08:37:09;95547.19;;;17.84;55.27
26978;BME280;56314;48.088;11.642;2023-05-24T08:39:35;95545.56;;;17.92;56.34
26978;BME280;56314;48.088;11.642;2023-05-24T08:42:01;95550.47;;;17.70;54.50
26978;BME280;56314;48.088;11.642;2023-05-24T08:44:27;95549.59;;;17.69;55.74
26978;BME280;56314;48.088;11.642;2023-05-24T08:46:54;95550.28;;;17.72;55.95
26978;BME280;56314;48.088;11.642;2023-05-24T08:49:20;95548.47;;;17.72;52.88
26978;BME280;56314;48.088;11.642;2023-05-24T08:51:46;95548.59;;;17.62;52.15
26978;BME280;56314;48.088;11.642;2023-05-24T08:54:12;95549.75;;;17.60;52.95
26978;BME280;56314;48.088;11.642;2023-05-24T08:56:39;95559.81;;;17.56;55.44
26978;BME280;56314;48.088;11.642;2023-05-24T08:59:06;95557.13;;;17.48;55.66
26978;BME280;56314;48.088;11.642;2023-05-24T09:01:31;95565.53;;;17.35;56.75
26978;BME280;56314;48.088;11.642;2023-05-24T09:03:58;95557.06;;;17.31;58.02
26978;BME280;56314;48.088;11.642;2023-05-24T09:06:24;95558.34;;;17.27;56.96
26978;BME280;56314;48.088;11.642;2023-05-24T09:08:51;95560.31;;;17.25;58.39
26978;BME280;56314;48.088;11.642;2023-05-24T09:11:18;95558.09;;;17.12;57.73
26978;BME280;56314;48.088;11.642;2023-05-24T09:13:46;95555.09;;;17.15;57.75
26978;BME280;56314;48.088;11.642;2023-05-24T09:16:12;95561.22;;;17.34;57.33
26978;BME280;56314;48.088;11.642;2023-05-24T09:18:39;95563.50;;;17.29;56.93
26978;BME280;56314;48.088;11.642;2023-05-24T09:21:06;95562.00;;;17.26;56.76
26978;BME280;56314;48.088;11.642;2023-05-24T09:23:33;95563.50;;;17.29;57.46
26978;BME280;56314;48.088;11.642;2023-05-24T09:26:06;95569.75;;;17.19;57.08
26978;BME280;56314;48.088;11.642;2023-05-24T09:28:31;95572.47;;;17.10;57.85
26978;BME280;56314;48.088;11.642;2023-05-24T09:30:58;95574.38;;;16.81;57.10
26978;BME280;56314;48.088;11.642;2023-05-24T09:33:32;95581.22;;;16.66;58.36
26978;BME280;56314;48.088;11.642;2023-05-24T09:36:00;95571.44;;;16.48;58.99
26978;BME280;56314;48.088;11.642;2023-05-24T09:38:26;95577.56;;;16.49;58.25
26978;BME280;56314;48.088;11.642;2023-05-24T09:41:06;95582.34;;;16.45;58.60
26978;BME280;56314;48.088;11.642;2023-05-24T09:43:33;95585.00;;;16.45;59.62
26978;BME280;56314;48.088;11.642;2023-05-24T09:46:01;95584.75;;;16.38;58.76
26978;BME280;56314;48.088;11.642;2023-05-24T09:48:27;95586.44;;;16.39;59.00
26978;BME280;56314;48.088;11.642;2023-05-24T09:51:06;95587.84;;;16.34;59.49
26978;BME280;56314;48.088;11.642;2023-05-24T09:53:35;95588.94;;;16.41;58.22
26978;BME280;56314;48.088;11.642;2023-05-24T09:56:04;95592.19;;;16.35;58.33
26978;BME280;56314;48.088;11.642;2023-05-24T09:58:31;95584.06;;;16.36;59.10
26978;BME280;56314;48.088;11.642;2023-05-24T10:01:10;95587.16;;;16.31;58.38
26978;BME280;56314;48.088;11.642;2023-05-24T10:03:36;95591.88;;;16.38;58.76
26978;BME280;56314;48.088;11.642;2023-05-24T10:06:03;95594.47;;;16.48;57.32
26978;BME280;56314;48.088;11.642;2023-05-24T10:08:33;95590.81;;;16.67;60.44
26978;BME280;56314;48.088;11.642;2023-05-24T10:11:00;95595.81;;;16.70;59.47
26978;BME280;56314;48.088;11.642;2023-05-24T10:13:27;95591.84;;;16.66;59.27
26978;BME280;56314;48.088;11.642;2023-05-24T10:15:53;95592.94;;;16.63;59.91
26978;BME280;56314;48.088;11.642;2023-05-24T10:18:18;95593.13;;;16.61;60.18
26978;BME280;56314;48.088;11.642;2023-05-24T10:20:44;95595.00;;;16.51;60.86
26978;BME280;56314;48.088;11.642;2023-05-24T10:23:13;95600.19;;;16.25;59.89
26978;BME280;56314;48.088;11.642;2023-05-24T10:25:48;95596.22;;;16.11;60.86
26978;BME280;56314;48.088;11.642;2023-05-24T10:28:15;95600.69;;;16.10;61.27
26978;BME280;56314;48.088;11.642;2023-05-24T10:33:27;95610.94;;;15.95;64.87
26978;BME280;56314;48.088;11.642;2023-05-24T10:35:54;95604.13;;;15.83;64.16
26978;BME280;56314;48.088;11.642;2023-05-24T10:38:21;95608.59;;;15.82;65.85
26978;BME280;56314;48.088;11.642;2023-05-24T10:40:47;95600.56;;;15.74;66.00
26978;BME280;56314;48.088;11.642;2023-05-24T10:43:13;95600.31;;;15.67;67.64
26978;BME280;56314;48.088;11.642;2023-05-24T10:45:39;95600.69;;;15.73;67.94
26978;BME280;56314;48.088;11.642;2023-05-24T10:50:37;95608.19;;;15.77;68.94
26978;BME280;56314;48.088;11.642;2023-05-24T10:53:13;95607.81;;;15.62;66.80
26978;BME280;56314;48.088;11.642;2023-05-24T10:55:56;95612.88;;;15.55;67.83
26978;BME280;56314;48.088;11.642;2023-05-24T11:01:24;95602.56;;;15.52;68.95
26978;BME280;56314;48.088;11.642;2023-05-24T11:03:50;95610.19;;;15.65;69.05
26978;BME280;56314;48.088;11.642;2023-05-24T11:06:16;95605.59;;;15.67;67.04
26978;BME280;56314;48.088;11.642;2023-05-24T11:08:42;95601.53;;;15.73;67.28
26978;BME280;56314;48.088;11.642;2023-05-24T11:11:12;95599.69;;;15.83;65.22
26978;BME280;56314;48.088;11.642;2023-05-24T11:13:38;95592.78;;;16.00;66.49
26978;BME280;56314;48.088;11.642;2023-05-24T11:16:05;95596.66;;;16.34;64.99
26978;BME280;56314;48.088;11.642;2023-05-24T11:18:30;95591.28;;;16.44;63.81
26978;BME280;56314;48.088;11.642;2023-05-24T11:20:58;95593.63;;;16.47;63.11
26978;BME280;56314;48.088;11.642;2023-05-24T11:23:24;95597.72;;;16.41;63.00
26978;BME280;56314;48.088;11.642;2023-05-24T11:25:49;95595.31;;;16.20;63.65
26978;BME280;56314;48.088;11.642;2023-05-24T11:28:15;95596.19;;;16.21;64.77
26978;BME280;56314;48.088;11.642;2023-05-24T11:30:42;95596.41;;;15.99;66.22
26978;BME280;56314;48.088;11.642;2023-05-24T11:33:21;95600.41;;;15.85;68.54
26978;BME280;56314;48.088;11.642;2023-05-24T11:35:49;95600.56;;;15.74;69.25
26978;BME280;56314;48.088;11.642;2023-05-24T11:38:15;95601.81;;;15.70;68.25
26978;BME280;56314;48.088;11.642;2023-05-24T11:40:42;95601.09;;;15.88;71.32
26978;BME280;56314;48.088;11.642;2023-05-24T11:43:18;95595.19;;;15.94;70.36
26978;BME280;56314;48.088;11.642;2023-05-24T11:45:47;95597.31;;;15.90;67.32
26978;BME280;56314;48.088;11.642;2023-05-24T11:48:14;95600.09;;;16.16;68.23
26978;BME280;56314;48.088;11.642;2023-05-24T11:50:41;95594.50;;;16.20;67.29
26978;BME280;56314;48.088;11.642;2023-05-24T11:53:14;95599.75;;;16.29;66.55
26978;BME280;56314;48.088;11.642;2023-05-24T11:55:40;95598.63;;;16.32;66.19
26978;BME280;56314;48.088;11.642;2023-05-24T11:58:11;95595.19;;;16.22;64.62
26978;BME280;56314;48.088;11.642;2023-05-24T12:00:38;95593.84;;;16.08;64.02
26978;BME280;56314;48.088;11.642;2023-05-24T12:03:04;95596.06;;;16.12;67.05
26978;BME280;56314;48.088;11.642;2023-05-24T12:05:32;95596.50;;;16.08;66.02
26978;BME280;56314;48.088;11.642;2023-05-24T12:08:06;95597.25;;;16.00;64.79
26978;BME280;56314;48.088;11.642;2023-05-24T12:10:36;95597.56;;;15.97;65.34
26978;BME280;56314;48.088;11.642;2023-05-24T12:13:02;95600.03;;;15.98;62.76
26978;BME280;56314;48.088;11.642;2023-05-24T12:15:28;95599.50;;;15.95;63.55
26978;BME280;56314;48.088;11.642;2023-05-24T12:17:55;95597.50;;;16.07;62.81
26978;BME280;56314;48.088;11.642;2023-05-24T12:20:21;95597.84;;;16.22;62.93
26978;BME280;56314;48.088;11.642;2023-05-24T12:22:50;95605.09;;;16.20;62.52
26978;BME280;56314;48.088;11.642;2023-05-24T12:25:21;95594.78;;;16.16;63.75
26978;BME280;56314;48.088;11.642;2023-05-24T12:27:52;95602.66;;;16.08;62.78
26978;BME280;56314;48.088;11.642;2023-05-24T12:30:27;95592.09;;;15.98;62.81
26978;BME280;56314;48.088;11.642;2023-05-24T12:32:52;95596.81;;;16.05;65.06
26978;BME280;56314;48.088;11.642;2023-05-24T12:35:20;95597.75;;;16.31;63.62
26978;BME280;56314;48.088;11.642;2023-05-24T12:37:46;95600.44;;;16.50;61.98
26978;BME280;56314;48.088;11.642;2023-05-24T12:40:16;95592.94;;;16.45;60.76
26978;BME280;56314;48.088;11.642;2023-05-24T12:42:45;95600.66;;;16.38;61.33
26978;BME280;56314;48.088;11.642;2023-05-24T12:45:16;95600.81;;;16.37;60.77
26978;BME280;56314;48.088;11.642;2023-05-24T12:47:48;95603.84;;;16.42;60.31
26978;BME280;56314;48.088;11.642;2023-05-24T12:50:13;95606.94;;;16.37;60.49
26978;BME280;56314;48.088;11.642;2023-05-24T12:52:41;95607.50;;;16.41;58.67
26978;BME280;56314;48.088;11.642;2023-05-24T12:55:06;95601.19;;;16.42;57.98
26978;BME280;56314;48.088;11.642;2023-05-24T12:57:32;95602.47;;;16.38;58.47
26978;BME280;56314;48.088;11.642;2023-05-24T12:59:57;95597.03;;;16.39;59.27
26978;BME280;56314;48.088;11.642;2023-05-24T13:02:23;95594.28;;;16.31;57.68
26978;BME280;56314;48.088;11.642;2023-05-24T13:04:48;95588.59;;;16.26;57.60
26978;BME280;56314;48.088;11.642;2023-05-24T13:07:15;95586.28;;;16.41;57.41
26978;BME280;56314;48.088;11.642;2023-05-24T13:09:40;95587.59;;;16.55;58.94